Time;durP1;ratioP1;P1;durP2;ratioP2;P2;SDS_P1;SDS_P2;PMS_P1;PMS_P2;Temp;Humidity;BMP_temperature;BMP_pressure;BME280_temperature;BME280_humidity;BME280_pressure;Samples;Min_cycle;Max_cycle;Signal;HPM_P1;HPM_P2
2023/02/13 00:01:48;;;;;;;58.40;24.23;;;;;;;;;;4973433;28;20650;-59
2023/02/13 00:04:14;;;;;;;52.78;22.60;;;;;;;;;;4977254;28;20042;-59
2023/02/13 00:06:39;;;;;;;64.95;23.88;;;;;;;;;;4983590;28;20034;-60
2023/02/13 00:09:04;;;;;;;53.55;23.15;;;;;;;;;;4976272;28;20026;-60
2023/02/13 00:11:30;;;;;;;60.28;22.77;;;;;;;;;;4979433;28;20121;-58
2023/02/13 00:13:56;;;;;;;62.40;24.73;;;;;;;;;;4977504;28;20486;-58
2023/02/13 00:16:22;;;;;;;56.08;23.27;;;;;;;;;;4974528;28;20034;-58
2023/02/13 00:18:47;;;;;;;49.03;21.85;;;;;;;;;;4983726;28;20368;-59
2023/02/13 00:21:12;;;;;;;57.63;23.17;;;;;;;;;;4976451;28;20066;-59
2023/02/13 00:23:38;;;;;;;49.40;21.10;;;;;;;;;;4980399;28;20193;-60
2023/02/13 00:26:09;;;;;;;59.03;22.52;;;;;;;;;;4977487;28;20033;-58
2023/02/13 00:28:35;;;;;;;60.25;24.20;;;;;;;;;;4980375;28;20458;-60
2023/02/13 00:31:06;;;;;;;63.17;24.88;;;;;;;;;;4985667;28;20109;-60
2023/02/13 00:33:31;;;;;;;62.83;24.92;;;;;;;;;;4990122;28;20034;-59
2023/02/13 00:36:04;;;;;;;63.53;25.23;;;;;;;;;;4983096;28;20388;-60
2023/02/13 00:38:30;;;;;;;55.17;22.65;;;;;;;;;;4984682;28;20038;-59
2023/02/13 00:40:55;;;;;;;57.28;23.13;;;;;;;;;;4992667;28;20423;-59
2023/02/13 00:43:20;;;;;;;53.13;22.27;;;;;;;;;;4983537;28;20089;-59
2023/02/13 00:45:45;;;;;;;61.13;24.20;;;;;;;;;;4980336;28;20518;-59
2023/02/13 00:48:11;;;;;;;64.07;24.63;;;;;;;;;;4982895;28;20670;-59
2023/02/13 00:50:36;;;;;;;60.40;21.33;;;;;;;;;;4984933;28;20061;-59
2023/02/13 00:53:01;;;;;;;49.60;20.08;;;;;;;;;;4979023;28;20045;-58
2023/02/13 00:55:27;;;;;;;62.03;21.45;;;;;;;;;;4983689;28;20493;-58
2023/02/13 00:57:52;;;;;;;55.25;20.85;;;;;;;;;;4977359;28;20034;-58
2023/02/13 01:00:17;;;;;;;52.70;21.05;;;;;;;;;;4981506;28;20034;-58
2023/02/13 01:02:43;;;;;;;57.38;20.75;;;;;;;;;;4986316;28;20030;-58
2023/02/13 01:05:09;;;;;;;56.78;21.10;;;;;;;;;;4980130;28;20116;-59
2023/02/13 01:07:34;;;;;;;54.38;21.65;;;;;;;;;;4984185;28;20174;-60
2023/02/13 01:10:00;;;;;;;51.30;21.40;;;;;;;;;;4976709;28;20026;-59
2023/02/13 01:12:25;;;;;;;54.58;22.20;;;;;;;;;;4977293;28;20030;-59
2023/02/13 01:14:51;;;;;;;51.60;21.77;;;;;;;;;;4983798;28;20403;-58
2023/02/13 01:17:16;;;;;;;49.35;20.50;;;;;;;;;;4977649;28;20018;-59
2023/02/13 01:19:41;;;;;;;51.47;21.02;;;;;;;;;;4978706;28;21586;-59
2023/02/13 01:22:07;;;;;;;59.95;22.13;;;;;;;;;;4972965;28;20022;-59
2023/02/13 01:24:32;;;;;;;58.72;21.17;;;;;;;;;;4978478;28;20036;-58
2023/02/13 01:27:01;;;;;;;62.47;23.67;;;;;;;;;;4986608;28;20530;-60
2023/02/13 01:29:26;;;;;;;56.28;21.95;;;;;;;;;;4974911;28;20045;-59
2023/02/13 01:31:51;;;;;;;67.03;22.90;;;;;;;;;;4984226;28;20030;-59
2023/02/13 01:34:17;;;;;;;57.45;23.17;;;;;;;;;;4975141;28;20053;-59
2023/02/13 01:36:42;;;;;;;53.63;20.83;;;;;;;;;;4978970;28;20034;-59
2023/02/13 01:39:10;;;;;;;55.08;21.30;;;;;;;;;;4992838;28;20077;-59
2023/02/13 01:41:35;;;;;;;50.72;19.00;;;;;;;;;;4978891;28;21004;-58
2023/02/13 01:44:01;;;;;;;52.60;20.60;;;;;;;;;;4983044;28;20034;-59
2023/02/13 01:46:35;;;;;;;53.53;19.55;;;;;;;;;;4977418;28;20046;-59
2023/02/13 01:49:06;;;;;;;55.20;20.38;;;;;;;;;;4977465;28;20387;-59
2023/02/13 01:51:32;;;;;;;61.90;21.13;;;;;;;;;;4984346;28;20041;-60
2023/02/13 01:54:00;;;;;;;62.47;21.45;;;;;;;;;;4980157;28;20038;-60
2023/02/13 01:56:32;;;;;;;52.65;19.02;;;;;;;;;;4985053;28;20180;-60
2023/02/13 01:58:59;;;;;;;56.85;19.60;;;;;;;;;;4976975;28;20367;-59
2023/02/13 02:01:26;;;;;;;58.38;20.30;;;;;;;;;;4974809;28;20459;-60
2023/02/13 02:03:59;;;;;;;50.97;19.65;;;;;;;;;;4983652;28;20796;-59
2023/02/13 02:06:30;;;;;;;49.70;19.27;;;;;;;;;;4972420;28;20188;-60
2023/02/13 02:08:59;;;;;;;57.05;19.85;;;;;;;;;;4991337;28;20030;-58
2023/02/13 02:11:34;;;;;;;48.30;19.20;;;;;;;;;;4983858;28;20175;-59
2023/02/13 02:14:00;;;;;;;46.63;18.17;;;;;;;;;;4976507;28;20113;-61
2023/02/13 02:16:32;;;;;;;48.58;18.85;;;;;;;;;;4982311;28;20031;-58
2023/02/13 02:18:58;;;;;;;48.28;18.92;;;;;;;;;;4989901;28;20104;-59
2023/02/13 02:21:46;;;;;;;55.08;20.55;;;;;;;;;;4976291;28;20531;-60
2023/02/13 02:24:17;;;;;;;60.63;20.38;;;;;;;;;;4978624;28;20100;-60
2023/02/13 02:26:42;;;;;;;50.45;18.95;;;;;;;;;;4980143;28;20031;-61
2023/02/13 02:29:26;;;;;;;47.42;18.40;;;;;;;;;;4959590;28;20023;-59
2023/02/13 02:32:15;;;;;;;51.22;18.08;;;;;;;;;;4981581;28;20443;-60
2023/02/13 02:34:47;;;;;;;45.00;16.58;;;;;;;;;;4964358;28;20074;-60
2023/02/13 02:37:12;;;;;;;47.88;17.40;;;;;;;;;;4975992;28;20030;-58
2023/02/13 02:39:57;;;;;;;44.08;17.00;;;;;;;;;;4981107;28;20485;-58
2023/02/13 02:42:40;;;;;;;47.97;18.85;;;;;;;;;;4970070;28;20041;-58
2023/02/13 02:45:10;;;;;;;56.65;18.25;;;;;;;;;;4974423;28;20092;-60
2023/02/13 02:50:47;;;;;;;49.47;17.60;;;;;;;;;;4969919;28;20576;-58
2023/02/13 02:53:31;;;;;;;46.10;17.52;;;;;;;;;;4991694;28;20046;-58
2023/02/13 02:55:59;;;;;;;49.05;17.48;;;;;;;;;;4984200;28;20080;-58
2023/02/13 03:06:49;;;;;;;47.17;16.83;;;;;;;;;;4977344;28;20045;-59
2023/02/13 03:14:46;;;;;;;51.90;17.27;;;;;;;;;;4977813;28;20039;-58
2023/02/13 03:23:03;;;;;;;50.95;16.35;;;;;;;;;;4974731;28;20136;-59
2023/02/13 03:25:33;;;;;;;44.55;15.90;;;;;;;;;;4977228;28;20085;-58
2023/02/13 03:31:06;;;;;;;46.03;15.73;;;;;;;;;;4976396;28;20034;-58
2023/02/13 03:33:48;;;;;;;44.70;16.85;;;;;;;;;;4974694;28;20034;-58
2023/02/13 03:39:03;;;;;;;43.08;16.70;;;;;;;;;;4974000;28;20034;-59
2023/02/13 03:41:50;;;;;;;43.13;16.42;;;;;;;;;;4975034;28;20049;-59
2023/02/13 03:44:18;;;;;;;49.47;16.52;;;;;;;;;;4980074;28;20493;-58
2023/02/13 03:46:46;;;;;;;49.58;17.92;;;;;;;;;;4977944;28;20053;-58
2023/02/13 03:52:06;;;;;;;50.30;16.20;;;;;;;;;;4980450;28;20026;-59
2023/02/13 04:00:14;;;;;;;49.95;17.02;;;;;;;;;;4980134;28;20046;-59
2023/02/13 04:02:48;;;;;;;50.05;17.20;;;;;;;;;;4977399;28;20034;-59
2023/02/13 04:05:15;;;;;;;57.90;19.60;;;;;;;;;;5000585;28;20061;-59
2023/02/13 04:07:41;;;;;;;51.00;18.05;;;;;;;;;;4978179;28;20548;-61
2023/02/13 04:10:08;;;;;;;48.50;18.35;;;;;;;;;;4979548;28;20033;-59
2023/02/13 04:12:36;;;;;;;53.78;20.20;;;;;;;;;;4985151;28;20042;-59
2023/02/13 04:15:22;;;;;;;50.85;18.00;;;;;;;;;;4977769;28;20472;-59
2023/02/13 04:17:52;;;;;;;47.30;17.85;;;;;;;;;;4981031;28;20042;-60
2023/02/13 04:20:18;;;;;;;44.92;18.25;;;;;;;;;;4981617;28;20038;-59
2023/02/13 04:22:43;;;;;;;52.28;19.60;;;;;;;;;;4978335;28;20084;-58
2023/02/13 04:25:10;;;;;;;54.58;19.88;;;;;;;;;;4965564;28;20511;-58
2023/02/13 04:27:35;;;;;;;43.92;17.58;;;;;;;;;;4978959;28;20030;-58
2023/02/13 04:30:00;;;;;;;50.90;17.65;;;;;;;;;;4978094;28;20030;-58
2023/02/13 04:32:26;;;;;;;54.08;18.35;;;;;;;;;;4981962;28;20731;-59
2023/02/13 04:34:51;;;;;;;49.33;18.20;;;;;;;;;;4977127;28;20037;-59
2023/02/13 04:37:16;;;;;;;50.00;17.38;;;;;;;;;;4983182;28;20165;-59
2023/02/13 04:39:41;;;;;;;58.08;18.85;;;;;;;;;;4976756;28;20026;-59
2023/02/13 04:42:07;;;;;;;51.13;18.15;;;;;;;;;;4983337;28;20497;-59
2023/02/13 04:44:32;;;;;;;53.95;17.00;;;;;;;;;;4982486;28;20040;-59
2023/02/13 04:46:57;;;;;;;63.72;20.20;;;;;;;;;;4979061;28;20034;-60
2023/02/13 04:49:22;;;;;;;60.65;20.63;;;;;;;;;;4979431;28;20123;-60
2023/02/13 04:51:48;;;;;;;58.17;20.90;;;;;;;;;;4975210;28;20019;-59
2023/02/13 04:54:13;;;;;;;70.45;20.65;;;;;;;;;;4976763;28;20442;-59
2023/02/13 04:56:38;;;;;;;59.00;19.38;;;;;;;;;;4984366;28;20022;-60
2023/02/13 04:59:04;;;;;;;52.03;18.15;;;;;;;;;;4941313;28;1076485;-59
2023/02/13 05:01:29;;;;;;;51.97;18.20;;;;;;;;;;4989340;28;20046;-60
2023/02/13 05:03:54;;;;;;;50.75;17.45;;;;;;;;;;4974230;28;20129;-59
2023/02/13 05:06:19;;;;;;;63.55;18.73;;;;;;;;;;4976021;28;20450;-60
2023/02/13 05:08:45;;;;;;;60.78;19.38;;;;;;;;;;4986261;28;20058;-59
2023/02/13 05:11:10;;;;;;;63.28;18.38;;;;;;;;;;4977900;28;20030;-59
2023/02/13 05:13:35;;;;;;;63.47;19.13;;;;;;;;;;4986006;28;20032;-60
2023/02/13 05:16:01;;;;;;;65.22;20.67;;;;;;;;;;4976792;28;20018;-60
2023/02/13 05:18:26;;;;;;;81.75;22.92;;;;;;;;;;4980521;28;20705;-59
2023/02/13 05:23:36;;;;;;;63.05;19.05;;;;;;;;;;4976774;28;20039;-59
2023/02/13 05:26:01;;;;;;;70.80;20.35;;;;;;;;;;4985409;28;20030;-59
2023/02/13 05:31:11;;;;;;;65.55;19.50;;;;;;;;;;4978791;28;20364;-59
2023/02/13 05:33:36;;;;;;;61.30;20.92;;;;;;;;;;4985747;28;20034;-60
2023/02/13 05:36:01;;;;;;;54.33;20.00;;;;;;;;;;4980114;28;20518;-60
2023/02/13 05:38:27;;;;;;;56.05;18.23;;;;;;;;;;4981622;28;20140;-59
2023/02/13 05:40:52;;;;;;;61.78;18.45;;;;;;;;;;4982723;28;21168;-60
2023/02/13 05:43:18;;;;;;;75.47;23.27;;;;;;;;;;4974352;28;20118;-59
2023/02/13 05:45:43;;;;;;;78.35;22.02;;;;;;;;;;4984396;28;20041;-59
2023/02/13 05:48:09;;;;;;;70.25;22.08;;;;;;;;;;4980889;28;20018;-59
2023/02/13 05:50:34;;;;;;;52.28;18.60;;;;;;;;;;4982659;28;20471;-60
2023/02/13 05:53:00;;;;;;;80.00;23.33;;;;;;;;;;4982249;28;20387;-59
2023/02/13 05:55:25;;;;;;;70.32;23.35;;;;;;;;;;4979146;28;20045;-59
2023/02/13 05:57:54;;;;;;;56.33;20.33;;;;;;;;;;4986842;28;20053;-61
2023/02/13 06:00:20;;;;;;;67.15;18.58;;;;;;;;;;4973939;28;20043;-59
2023/02/13 06:02:45;;;;;;;50.03;18.45;;;;;;;;;;4972708;28;20065;-58
2023/02/13 06:05:10;;;;;;;52.38;18.38;;;;;;;;;;4979845;28;20042;-60
2023/02/13 06:07:36;;;;;;;54.42;18.45;;;;;;;;;;4974226;28;20034;-60
2023/02/13 06:10:01;;;;;;;53.22;17.40;;;;;;;;;;4976872;28;20026;-59
2023/02/13 06:12:26;;;;;;;56.13;17.58;;;;;;;;;;4975793;28;20080;-58
2023/02/13 06:14:51;;;;;;;56.28;18.42;;;;;;;;;;4977020;28;20346;-60
2023/02/13 06:17:17;;;;;;;76.43;23.98;;;;;;;;;;4982980;28;20363;-59
2023/02/13 06:19:42;;;;;;;65.25;20.15;;;;;;;;;;4976539;28;20027;-60
2023/02/13 06:22:07;;;;;;;76.10;24.77;;;;;;;;;;4981950;28;20034;-61
2023/02/13 06:24:32;;;;;;;69.00;23.92;;;;;;;;;;4978904;28;20038;-59
2023/02/13 06:26:58;;;;;;;71.95;24.85;;;;;;;;;;4977115;28;20034;-60
2023/02/13 06:29:23;;;;;;;78.68;24.98;;;;;;;;;;4980843;28;20030;-60
2023/02/13 06:31:49;;;;;;;63.10;22.17;;;;;;;;;;4978645;28;20572;-58
2023/02/13 06:34:14;;;;;;;81.15;26.45;;;;;;;;;;4982259;28;20081;-59
2023/02/13 06:36:41;;;;;;;76.35;25.45;;;;;;;;;;4979823;28;20787;-61
2023/02/13 06:39:08;;;;;;;65.60;22.88;;;;;;;;;;4970101;28;20519;-60
2023/02/13 06:41:33;;;;;;;65.75;22.02;;;;;;;;;;4981522;28;20026;-59
2023/02/13 06:43:59;;;;;;;69.20;24.48;;;;;;;;;;4976063;28;20366;-59
2023/02/13 06:46:24;;;;;;;69.20;23.40;;;;;;;;;;4981596;28;20121;-60
2023/02/13 06:48:49;;;;;;;66.13;22.88;;;;;;;;;;4973578;28;20549;-59
2023/02/13 06:51:14;;;;;;;71.30;22.73;;;;;;;;;;4978297;28;20022;-60
2023/02/13 06:53:40;;;;;;;62.72;21.02;;;;;;;;;;4984460;28;20121;-60
2023/02/13 06:56:05;;;;;;;70.60;22.17;;;;;;;;;;4978296;28;20069;-60
2023/02/13 06:58:32;;;;;;;68.93;22.33;;;;;;;;;;4983135;28;20042;-60
2023/02/13 07:00:58;;;;;;;62.45;22.85;;;;;;;;;;4976754;28;20026;-58
2023/02/13 07:03:23;;;;;;;64.22;22.85;;;;;;;;;;4975666;28;20034;-59
2023/02/13 07:05:50;;;;;;;73.82;23.23;;;;;;;;;;4979796;28;20022;-58
2023/02/13 07:08:16;;;;;;;;;;;;;;;;;;4977648;28;20058;-58
2023/02/13 07:10:41;;;;;;;65.57;21.40;;;;;;;;;;4982150;28;20841;-59
2023/02/13 07:13:07;;;;;;;72.75;23.33;;;;;;;;;;4971762;28;20276;-60
2023/02/13 07:15:32;;;;;;;65.13;22.13;;;;;;;;;;4980176;28;20104;-59
2023/02/13 07:17:58;;;;;;;68.63;22.60;;;;;;;;;;4982698;28;20034;-59
2023/02/13 07:20:24;;;;;;;63.30;22.30;;;;;;;;;;4977962;28;20034;-60
2023/02/13 07:22:49;;;;;;;83.43;25.20;;;;;;;;;;4979356;28;20034;-58
2023/02/13 07:25:15;;;;;;;90.13;29.80;;;;;;;;;;4981821;28;20045;-60
2023/02/13 07:27:40;;;;;;;87.03;30.80;;;;;;;;;;4993390;28;20121;-62
2023/02/13 07:30:05;;;;;;;83.15;27.63;;;;;;;;;;4982205;28;20383;-61
2023/02/13 07:32:31;;;;;;;87.45;31.10;;;;;;;;;;4982998;28;20034;-61
2023/02/13 07:34:56;;;;;;;92.15;30.35;;;;;;;;;;4981161;28;20117;-60
2023/02/13 07:37:21;;;;;;;78.45;27.15;;;;;;;;;;4981875;28;20038;-59
2023/02/13 07:39:47;;;;;;;95.93;31.65;;;;;;;;;;4983888;28;20038;-59
2023/02/13 07:42:12;;;;;;;81.13;28.30;;;;;;;;;;4984397;28;20022;-59
2023/02/13 07:44:37;;;;;;;75.13;29.20;;;;;;;;;;4984460;28;20451;-58
2023/02/13 07:47:03;;;;;;;82.25;28.65;;;;;;;;;;4983585;28;20480;-58
2023/02/13 07:49:28;;;;;;;84.00;28.55;;;;;;;;;;4994856;28;20897;-58
2023/02/13 07:51:55;;;;;;;92.93;32.90;;;;;;;;;;4983061;28;20030;-61
2023/02/13 07:54:20;;;;;;;99.30;33.22;;;;;;;;;;4981916;28;20097;-59
2023/02/13 07:56:45;;;;;;;94.90;31.38;;;;;;;;;;4982682;28;20034;-58
2023/02/13 07:59:10;;;;;;;100.72;33.38;;;;;;;;;;4984165;28;20030;-59
2023/02/13 08:01:36;;;;;;;104.47;32.85;;;;;;;;;;4984111;28;20026;-59
2023/02/13 08:04:01;;;;;;;108.97;35.75;;;;;;;;;;4982002;28;20045;-58
2023/02/13 08:06:26;;;;;;;106.53;33.53;;;;;;;;;;4982156;28;20027;-59
2023/02/13 08:11:52;;;;;;;107.35;32.15;;;;;;;;;;4986242;28;20490;-60
2023/02/13 08:11:52;;;;;;;106.10;32.80;;;;;;;;;;4982433;28;20670;-58
2023/02/13 08:14:18;;;;;;;98.50;31.60;;;;;;;;;;4981499;28;20090;-59
2023/02/13 08:16:43;;;;;;;112.53;33.63;;;;;;;;;;4983133;28;20506;-58
2023/02/13 08:19:08;;;;;;;100.95;33.08;;;;;;;;;;4983000;28;20419;-60
2023/02/13 08:21:35;;;;;;;124.18;41.60;;;;;;;;;;4982522;28;20042;-58
2023/02/13 08:24:01;;;;;;;121.05;37.20;;;;;;;;;;4983043;28;20042;-59
2023/02/13 08:26:26;;;;;;;107.50;34.47;;;;;;;;;;4983134;28;20034;-59
2023/02/13 08:28:51;;;;;;;96.60;33.30;;;;;;;;;;4981806;28;20038;-59
2023/02/13 08:31:16;;;;;;;106.13;34.28;;;;;;;;;;4982902;28;20546;-60
2023/02/13 08:33:42;;;;;;;107.07;35.60;;;;;;;;;;4983812;28;20038;-59
2023/02/13 08:36:07;;;;;;;95.47;34.88;;;;;;;;;;4981914;28;20034;-59
2023/02/13 08:38:33;;;;;;;93.43;36.25;;;;;;;;;;4984446;28;20030;-59
2023/02/13 08:40:58;;;;;;;106.75;37.00;;;;;;;;;;4980612;28;20040;-59
2023/02/13 08:43:23;;;;;;;106.15;36.03;;;;;;;;;;4982142;28;20030;-60
2023/02/13 08:45:49;;;;;;;98.47;37.20;;;;;;;;;;4984600;28;20080;-60
2023/02/13 08:48:14;;;;;;;107.97;35.75;;;;;;;;;;4988585;28;20058;-59
2023/02/13 08:50:39;;;;;;;100.15;33.72;;;;;;;;;;4985136;28;20033;-59
2023/02/13 08:53:05;;;;;;;92.97;34.05;;;;;;;;;;4986658;28;20022;-59
2023/02/13 08:55:30;;;;;;;97.78;34.17;;;;;;;;;;4986340;28;20041;-60
2023/02/13 08:58:00;;;;;;;98.82;34.65;;;;;;;;;;4987842;28;20045;-60
2023/02/13 09:00:26;;;;;;;97.53;35.08;;;;;;;;;;4983494;28;20044;-60
2023/02/13 09:02:51;;;;;;;86.25;33.00;;;;;;;;;;4984134;28;20054;-58
2023/02/13 09:05:16;;;;;;;99.43;34.33;;;;;;;;;;4980656;28;20050;-59
2023/02/13 09:07:42;;;;;;;82.35;31.35;;;;;;;;;;4983412;28;20038;-59
2023/02/13 09:10:07;;;;;;;84.32;31.33;;;;;;;;;;4981141;28;20026;-58
2023/02/13 09:12:32;;;;;;;85.15;33.10;;;;;;;;;;4983784;28;20101;-59
2023/02/13 09:14:58;;;;;;;90.78;32.70;;;;;;;;;;4982719;28;20967;-59
2023/02/13 09:17:23;;;;;;;80.70;31.42;;;;;;;;;;4985488;28;20541;-59
2023/02/13 09:19:49;;;;;;;71.45;31.05;;;;;;;;;;4985555;28;20481;-58
2023/02/13 09:22:16;;;;;;;71.88;28.63;;;;;;;;;;4988346;28;20062;-59
2023/02/13 09:24:41;;;;;;;78.20;33.03;;;;;;;;;;4984835;28;20050;-59
2023/02/13 09:27:07;;;;;;;70.53;30.90;;;;;;;;;;4983268;28;20081;-58
2023/02/13 09:29:33;;;;;;;69.13;29.13;;;;;;;;;;4985635;28;20034;-58
2023/02/13 09:31:58;;;;;;;64.55;28.25;;;;;;;;;;4986003;28;20380;-60
2023/02/13 09:34:23;;;;;;;65.05;28.85;;;;;;;;;;4985284;28;20038;-58
2023/02/13 09:36:52;;;;;;;55.88;25.30;;;;;;;;;;4986206;28;20034;-59
2023/02/13 09:39:17;;;;;;;57.85;24.70;;;;;;;;;;4984922;28;20026;-61
2023/02/13 09:41:44;;;;;;;59.95;25.67;;;;;;;;;;4986239;28;20080;-60
2023/02/13 09:44:32;;;;;;;57.38;24.85;;;;;;;;;;4985011;28;20096;-58
2023/02/13 09:47:12;;;;;;;54.58;24.60;;;;;;;;;;4986138;28;20500;-58
2023/02/13 09:49:39;;;;;;;53.35;22.90;;;;;;;;;;4983878;28;20121;-59
2023/02/13 09:52:04;;;;;;;;;;;;;;;;;;4985040;28;20042;-59
2023/02/13 09:54:31;;;;;;;45.93;19.90;;;;;;;;;;4983894;28;20548;-59
2023/02/13 09:57:11;;;;;;;46.25;20.63;;;;;;;;;;4986272;28;20276;-59
2023/02/13 09:59:45;;;;;;;48.90;20.08;;;;;;;;;;4985215;28;20046;-58
2023/02/13 10:02:17;;;;;;;41.03;19.23;;;;;;;;;;4984803;28;20989;-58
2023/02/13 10:04:53;;;;;;;40.53;18.60;;;;;;;;;;4984865;28;20061;-58
2023/02/13 10:07:19;;;;;;;46.63;20.88;;;;;;;;;;4985452;28;20034;-59
2023/02/13 10:09:47;;;;;;;41.85;20.42;;;;;;;;;;4983100;28;20381;-59
2023/02/13 10:12:18;;;;;;;35.80;16.45;;;;;;;;;;4982315;28;20532;-58
2023/02/13 10:14:43;;;;;;;39.67;16.52;;;;;;;;;;4986862;28;20053;-59
2023/02/13 10:17:14;;;;;;;31.60;16.15;;;;;;;;;;4985698;28;20030;-58
2023/02/13 10:19:42;;;;;;;29.70;14.55;;;;;;;;;;4984371;28;20038;-59
2023/02/13 10:22:13;;;;;;;28.30;14.55;;;;;;;;;;4984704;28;20030;-60
2023/02/13 10:24:43;;;;;;;30.00;15.25;;;;;;;;;;4982592;28;20070;-59
2023/02/13 10:27:16;;;;;;;28.27;14.00;;;;;;;;;;4984837;28;20427;-58
2023/02/13 10:32:31;;;;;;;31.55;15.45;;;;;;;;;;4981596;28;20065;-60
2023/02/13 10:34:57;;;;;;;27.15;13.25;;;;;;;;;;4984873;28;20073;-59
2023/02/13 10:37:22;;;;;;;41.17;15.00;;;;;;;;;;4983157;28;20043;-59
2023/02/13 10:39:49;;;;;;;25.90;13.05;;;;;;;;;;4984164;28;20075;-60
2023/02/13 10:42:17;;;;;;;25.57;13.37;;;;;;;;;;4985826;28;20030;-59
2023/02/13 10:45:01;;;;;;;44.85;17.25;;;;;;;;;;4984373;28;20069;-59
2023/02/13 10:47:45;;;;;;;53.85;20.02;;;;;;;;;;4981324;28;20034;-59
2023/02/13 10:50:42;;;;;;;31.52;14.45;;;;;;;;;;4987707;28;20112;-60
2023/02/13 10:53:07;;;;;;;30.20;13.68;;;;;;;;;;4951515;28;20034;-59
2023/02/13 10:55:48;;;;;;;24.55;13.05;;;;;;;;;;4985242;28;20089;-59
2023/02/13 10:58:16;;;;;;;28.30;13.18;;;;;;;;;;4983230;28;20073;-61
2023/02/13 11:00:41;;;;;;;24.60;12.93;;;;;;;;;;4983068;28;20030;-60
2023/02/13 11:03:14;;;;;;;23.77;12.85;;;;;;;;;;4983211;28;20026;-60
2023/02/13 11:05:40;;;;;;;25.38;14.13;;;;;;;;;;4983540;28;20089;-58
2023/02/13 11:08:15;;;;;;;20.95;12.32;;;;;;;;;;4983713;28;20459;-60
2023/02/13 11:10:40;;;;;;;26.75;12.55;;;;;;;;;;4983549;28;20034;-58
2023/02/13 11:13:17;;;;;;;24.15;12.60;;;;;;;;;;4983934;28;20080;-58
2023/02/13 11:15:54;;;;;;;23.10;12.40;;;;;;;;;;4978300;28;20027;-59
2023/02/13 11:18:20;;;;;;;22.60;12.00;;;;;;;;;;4985540;28;20280;-58
2023/02/13 11:20:48;;;;;;;22.83;12.30;;;;;;;;;;4988552;28;20391;-58
2023/02/13 11:23:13;;;;;;;;;;;;;;;;;;4986302;28;20026;-59
2023/02/13 11:25:38;;;;;;;20.93;11.57;;;;;;;;;;4984651;28;20313;-59
2023/02/13 11:28:08;;;;;;;21.42;11.07;;;;;;;;;;4985336;28;20272;-59
2023/02/13 11:30:35;;;;;;;20.17;11.68;;;;;;;;;;4984703;28;20041;-59
2023/02/13 11:33:20;;;;;;;22.05;12.23;;;;;;;;;;4983524;28;20812;-59
2023/02/13 11:35:46;;;;;;;22.63;11.75;;;;;;;;;;4984302;28;20050;-59
2023/02/13 11:38:14;;;;;;;19.92;11.25;;;;;;;;;;4986414;28;20034;-59
2023/02/13 11:40:41;;;;;;;17.38;10.27;;;;;;;;;;4985304;28;20084;-59
2023/02/13 11:43:06;;;;;;;17.87;10.37;;;;;;;;;;4984705;28;20023;-59
2023/02/13 11:45:32;;;;;;;19.08;10.40;;;;;;;;;;4984403;28;20038;-60
2023/02/13 11:47:57;;;;;;;16.52;10.25;;;;;;;;;;4983267;28;20034;-59
2023/02/13 11:50:27;;;;;;;15.15;9.25;;;;;;;;;;4983430;28;20057;-59
2023/02/13 11:53:17;;;;;;;14.98;8.73;;;;;;;;;;4995898;28;20186;-59
2023/02/13 11:55:43;;;;;;;18.85;10.48;;;;;;;;;;4986396;28;20041;-59
2023/02/13 11:58:14;;;;;;;16.10;9.65;;;;;;;;;;4984081;28;20030;-59
2023/02/13 12:00:41;;;;;;;14.00;8.93;;;;;;;;;;4982692;28;20034;-59
2023/02/13 12:03:19;;;;;;;15.20;9.10;;;;;;;;;;4983792;28;20465;-60
2023/02/13 12:05:58;;;;;;;13.75;8.50;;;;;;;;;;4985528;28;20050;-59
2023/02/13 12:08:23;;;;;;;14.43;8.77;;;;;;;;;;4984056;28;20030;-59
2023/02/13 12:10:49;;;;;;;12.80;8.00;;;;;;;;;;4986143;28;21273;-60
2023/02/13 12:13:22;;;;;;;12.07;8.27;;;;;;;;;;4982842;28;20069;-59
2023/02/13 12:15:52;;;;;;;12.30;8.18;;;;;;;;;;4984258;28;20034;-59
2023/02/13 12:18:23;;;;;;;29.38;15.38;;;;;;;;;;4981970;28;20034;-59
2023/02/13 12:20:54;;;;;;;12.65;8.60;;;;;;;;;;4982847;28;20038;-59
2023/02/13 12:23:26;;;;;;;12.77;8.18;;;;;;;;;;4985062;28;20049;-58
2023/02/13 12:25:52;;;;;;;12.48;8.50;;;;;;;;;;4989479;28;20038;-58
2023/02/13 12:28:22;;;;;;;12.60;7.55;;;;;;;;;;4985914;28;20034;-58
2023/02/13 12:30:57;;;;;;;11.27;7.80;;;;;;;;;;4987262;28;20030;-58
2023/02/13 12:33:48;;;;;;;13.70;7.90;;;;;;;;;;4979997;28;20085;-58
2023/02/13 12:36:23;;;;;;;11.50;7.95;;;;;;;;;;4974630;28;20045;-58
2023/02/13 12:39:01;;;;;;;8.98;6.30;;;;;;;;;;4987897;28;20097;-58
2023/02/13 12:41:36;;;;;;;10.38;7.63;;;;;;;;;;4986285;28;20112;-58
2023/02/13 12:44:04;;;;;;;11.52;7.65;;;;;;;;;;4985610;28;20487;-58
2023/02/13 12:46:29;;;;;;;10.00;6.88;;;;;;;;;;4985962;28;20093;-60
2023/02/13 12:48:55;;;;;;;10.87;6.97;;;;;;;;;;4987634;28;20015;-59
2023/02/13 12:51:20;;;;;;;10.50;7.20;;;;;;;;;;4987689;28;20101;-59
2023/02/13 12:53:54;;;;;;;10.13;7.70;;;;;;;;;;4987047;28;20047;-60
2023/02/13 12:56:46;;;;;;;10.05;7.35;;;;;;;;;;4986173;28;20547;-59
2023/02/13 12:59:14;;;;;;;11.32;7.05;;;;;;;;;;4983122;28;20526;-58
2023/02/13 13:01:42;;;;;;;11.52;7.13;;;;;;;;;;4984731;28;20033;-59
2023/02/13 13:04:31;;;;;;;9.52;6.60;;;;;;;;;;4985407;28;20034;-58
2023/02/13 13:07:22;;;;;;;8.65;6.82;;;;;;;;;;4985372;28;20113;-58
2023/02/13 13:09:56;;;;;;;8.90;6.90;;;;;;;;;;4985888;28;20036;-58
2023/02/13 13:12:24;;;;;;;9.23;6.35;;;;;;;;;;4985604;28;20061;-58
2023/02/13 13:14:56;;;;;;;7.55;5.78;;;;;;;;;;4987434;28;20034;-58
2023/02/13 13:17:21;;;;;;;9.05;6.47;;;;;;;;;;4987228;28;20041;-58
2023/02/13 13:19:56;;;;;;;10.27;6.60;;;;;;;;;;4984926;28;20438;-59
2023/02/13 13:22:34;;;;;;;9.48;6.78;;;;;;;;;;4984969;28;20380;-59
2023/02/13 13:25:13;;;;;;;8.43;6.28;;;;;;;;;;4987143;28;20049;-58
2023/02/13 13:27:43;;;;;;;9.20;6.78;;;;;;;;;;4987252;28;20042;-58
2023/02/13 13:30:23;;;;;;;10.10;6.82;;;;;;;;;;4984418;28;20041;-58
2023/02/13 13:33:03;;;;;;;9.20;6.88;;;;;;;;;;4984247;28;20427;-60
2023/02/13 13:35:29;;;;;;;9.82;6.95;;;;;;;;;;4983032;28;20049;-57
2023/02/13 13:38:08;;;;;;;10.32;6.25;;;;;;;;;;4988407;28;20037;-59
2023/02/13 13:40:34;;;;;;;8.75;6.43;;;;;;;;;;4983708;28;20034;-58
2023/02/13 13:43:02;;;;;;;8.20;6.47;;;;;;;;;;4986055;28;20028;-59
2023/02/13 13:45:43;;;;;;;8.52;6.45;;;;;;;;;;4985314;28;20088;-58
2023/02/13 13:48:27;;;;;;;8.70;6.07;;;;;;;;;;4985991;28;20034;-58
2023/02/13 13:50:52;;;;;;;9.10;5.90;;;;;;;;;;4987305;28;20482;-59
2023/02/13 13:53:19;;;;;;;8.13;5.87;;;;;;;;;;4985869;28;20037;-59
2023/02/13 13:56:01;;;;;;;8.00;6.10;;;;;;;;;;4995390;28;20070;-59
2023/02/13 13:58:33;;;;;;;9.77;6.47;;;;;;;;;;4980087;28;20049;-61
2023/02/13 14:01:13;;;;;;;7.95;6.47;;;;;;;;;;4986535;28;20026;-60
2023/02/13 14:03:39;;;;;;;9.93;6.50;;;;;;;;;;4984617;28;20034;-58
2023/02/13 14:06:08;;;;;;;9.67;6.10;;;;;;;;;;4983172;28;20399;-59
2023/02/13 14:08:39;;;;;;;9.40;5.93;;;;;;;;;;4986120;28;20034;-58
2023/02/13 14:11:23;;;;;;;8.90;6.45;;;;;;;;;;4984487;28;20054;-58
2023/02/13 14:13:49;;;;;;;8.30;5.82;;;;;;;;;;4985845;28;20366;-58
2023/02/13 14:16:34;;;;;;;9.57;6.40;;;;;;;;;;4987316;28;20463;-59
2023/02/13 14:19:00;;;;;;;8.57;6.80;;;;;;;;;;4995978;28;20074;-59
2023/02/13 14:21:25;;;;;;;7.35;6.00;;;;;;;;;;4988050;28;20541;-58
2023/02/13 14:23:56;;;;;;;7.53;5.83;;;;;;;;;;4986038;28;20077;-58
2023/02/13 14:26:27;;;;;;;9.50;5.80;;;;;;;;;;4987153;28;20034;-58
2023/02/13 14:28:52;;;;;;;9.38;6.13;;;;;;;;;;4987756;28;20026;-58
2023/02/13 14:31:27;;;;;;;8.50;6.37;;;;;;;;;;4986640;28;20614;-59
2023/02/13 14:34:23;;;;;;;7.38;5.82;;;;;;;;;;4986088;28;20065;-59
2023/02/13 14:37:00;;;;;;;10.80;5.93;;;;;;;;;;4973787;28;20053;-59
2023/02/13 14:39:36;;;;;;;11.18;5.55;;;;;;;;;;4986598;28;20031;-58
2023/02/13 14:42:02;;;;;;;8.80;5.80;;;;;;;;;;4986501;28;20034;-58
2023/02/13 14:44:28;;;;;;;;;;;;;;;;;;4986657;28;20046;-58
2023/02/13 14:46:54;;;;;;;6.97;5.13;;;;;;;;;;4985173;28;19913;-59
2023/02/13 14:49:24;;;;;;;9.13;6.00;;;;;;;;;;4984848;28;20041;-59
2023/02/13 14:51:51;;;;;;;8.27;6.20;;;;;;;;;;4982666;28;20524;-57
2023/02/13 14:54:32;;;;;;;8.73;5.93;;;;;;;;;;4986486;28;20475;-59
2023/02/13 14:57:18;;;;;;;9.35;5.90;;;;;;;;;;4988562;28;20129;-59
2023/02/13 14:59:46;;;;;;;7.88;5.40;;;;;;;;;;4985369;28;20360;-59
2023/02/13 15:02:17;;;;;;;13.40;6.20;;;;;;;;;;5001449;28;20088;-59
2023/02/13 15:04:45;;;;;;;10.15;6.28;;;;;;;;;;4986796;28;20096;-59
2023/02/13 15:07:16;;;;;;;7.85;6.30;;;;;;;;;;4986423;28;20034;-59
2023/02/13 15:09:45;;;;;;;9.15;6.18;;;;;;;;;;4979492;28;20030;-59
2023/02/13 15:12:30;;;;;;;10.65;6.20;;;;;;;;;;4981446;28;20088;-58
2023/02/13 15:14:56;;;;;;;8.75;6.50;;;;;;;;;;4977503;28;20046;-58
2023/02/13 15:17:23;;;;;;;9.82;6.50;;;;;;;;;;4966892;28;20034;-59
2023/02/13 15:20:03;;;;;;;14.27;7.07;;;;;;;;;;4975251;28;20026;-57